sensor_id;sensor_type;location;lat;lon;timestamp;temperature;humidity
35920;DHT22;36160;53.370;-6.196;2023-02-26T00:00:59;7.10;99.90
35920;DHT22;36160;53.370;-6.196;2023-02-26T00:03:24;7.10;99.90
35920;DHT22;36160;53.370;-6.196;2023-02-26T00:05:50;7.10;99.90
35920;DHT22;36160;53.370;-6.196;2023-02-26T00:08:16;7.10;1.00
35920;DHT22;36160;53.370;-6.196;2023-02-26T00:10:42;7.10;99.90
35920;DHT22;36160;53.370;-6.196;2023-02-26T00:13:11;7.10;1.00
35920;DHT22;36160;53.370;-6.196;2023-02-26T00:15:37;7.20;1.00
35920;DHT22;36160;53.370;-6.196;2023-02-26T00:18:06;7.10;99.90
35920;DHT22;36160;53.370;-6.196;2023-02-26T00:20:32;7.20;99.90
35920;DHT22;36160;53.370;-6.196;2023-02-26T00:22:58;7.20;37.20
35920;DHT22;36160;53.370;-6.196;2023-02-26T00:25:24;7.10;99.90
35920;DHT22;36160;53.370;-6.196;2023-02-26T00:27:50;7.10;99.90
35920;DHT22;36160;53.370;-6.196;2023-02-26T00:30:16;7.10;99.90
35920;DHT22;36160;53.370;-6.196;2023-02-26T00:32:42;7.10;99.90
35920;DHT22;36160;53.370;-6.196;2023-02-26T00:35:12;7.10;99.90
35920;DHT22;36160;53.370;-6.196;2023-02-26T00:38:00;7.10;8.60
35920;DHT22;36160;53.370;-6.196;2023-02-26T00:43:17;7.20;99.90
35920;DHT22;36160;53.370;-6.196;2023-02-26T00:48:43;7.10;99.90
35920;DHT22;36160;53.370;-6.196;2023-02-26T00:51:22;7.20;99.90
35920;DHT22;36160;53.370;-6.196;2023-02-26T00:54:01;7.10;99.90
35920;DHT22;36160;53.370;-6.196;2023-02-26T00:56:28;7.10;99.90
35920;DHT22;36160;53.370;-6.196;2023-02-26T00:58:55;7.10;99.90
35920;DHT22;36160;53.370;-6.196;2023-02-26T01:01:22;7.10;99.90
35920;DHT22;36160;53.370;-6.196;2023-02-26T01:03:48;7.10;1.00
35920;DHT22;36160;53.370;-6.196;2023-02-26T01:06:16;7.10;99.90
35920;DHT22;36160;53.370;-6.196;2023-02-26T01:11:37;7.00;99.90
35920;DHT22;36160;53.370;-6.196;2023-02-26T01:14:04;6.90;99.90
35920;DHT22;36160;53.370;-6.196;2023-02-26T01:16:33;6.90;1.00
35920;DHT22;36160;53.370;-6.196;2023-02-26T01:19:23;6.90;1.00
35920;DHT22;36160;53.370;-6.196;2023-02-26T01:21:59;6.80;1.00
35920;DHT22;36160;53.370;-6.196;2023-02-26T01:24:28;6.70;36.00
35920;DHT22;36160;53.370;-6.196;2023-02-26T01:26:54;6.60;61.20
35920;DHT22;36160;53.370;-6.196;2023-02-26T01:29:20;6.60;99.90
35920;DHT22;36160;53.370;-6.196;2023-02-26T01:31:56;6.50;99.90
35920;DHT22;36160;53.370;-6.196;2023-02-26T01:34:36;6.40;99.90
35920;DHT22;36160;53.370;-6.196;2023-02-26T01:37:34;6.40;99.90
35920;DHT22;36160;53.370;-6.196;2023-02-26T01:40:32;6.30;99.90
35920;DHT22;36160;53.370;-6.196;2023-02-26T01:43:06;6.30;99.90
35920;DHT22;36160;53.370;-6.196;2023-02-26T01:46:13;6.20;99.90
35920;DHT22;36160;53.370;-6.196;2023-02-26T01:48:37;6.20;99.90
35920;DHT22;36160;53.370;-6.196;2023-02-26T01:51:03;6.10;99.90
35920;DHT22;36160;53.370;-6.196;2023-02-26T01:53:29;6.10;99.90
35920;DHT22;36160;53.370;-6.196;2023-02-26T01:55:57;6.10;99.90
35920;DHT22;36160;53.370;-6.196;2023-02-26T01:58:28;6.10;54.40
35920;DHT22;36160;53.370;-6.196;2023-02-26T02:00:55;6.00;99.90
35920;DHT22;36160;53.370;-6.196;2023-02-26T02:03:23;6.00;52.70
35920;DHT22;36160;53.370;-6.196;2023-02-26T02:05:54;6.00;99.90
35920;DHT22;36160;53.370;-6.196;2023-02-26T02:08:21;6.10;39.80
35920;DHT22;36160;53.370;-6.196;2023-02-26T02:10:47;6.10;64.70
35920;DHT22;36160;53.370;-6.196;2023-02-26T02:16:22;6.30;99.90
35920;DHT22;36160;53.370;-6.196;2023-02-26T02:28:04;6.40;1.00
35920;DHT22;36160;53.370;-6.196;2023-02-26T02:33:05;6.50;99.90
35920;DHT22;36160;53.370;-6.196;2023-02-26T02:35:44;6.50;99.90
35920;DHT22;36160;53.370;-6.196;2023-02-26T02:38:17;6.60;1.00
35920;DHT22;36160;53.370;-6.196;2023-02-26T02:40:50;6.60;1.00
35920;DHT22;36160;53.370;-6.196;2023-02-26T02:43:24;6.60;99.90
35920;DHT22;36160;53.370;-6.196;2023-02-26T02:45:59;6.60;1.00
35920;DHT22;36160;53.370;-6.196;2023-02-26T02:51:09;6.70;76.80
35920;DHT22;36160;53.370;-6.196;2023-02-26T02:53:46;6.70;99.90
35920;DHT22;36160;53.370;-6.196;2023-02-26T02:56:20;6.70;99.90
35920;DHT22;36160;53.370;-6.196;2023-02-26T02:59:13;6.70;47.50
35920;DHT22;36160;53.370;-6.196;2023-02-26T03:01:41;6.70;99.90
35920;DHT22;36160;53.370;-6.196;2023-02-26T03:04:12;6.60;79.60
35920;DHT22;36160;53.370;-6.196;2023-02-26T03:06:40;6.50;60.60
35920;DHT22;36160;53.370;-6.196;2023-02-26T03:09:08;6.50;99.90
35920;DHT22;36160;53.370;-6.196;2023-02-26T03:11:36;6.40;99.90
35920;DHT22;36160;53.370;-6.196;2023-02-26T03:14:02;6.40;99.90
35920;DHT22;36160;53.370;-6.196;2023-02-26T03:16:51;6.40;99.90
35920;DHT22;36160;53.370;-6.196;2023-02-26T03:24:54;6.40;99.90
35920;DHT22;36160;53.370;-6.196;2023-02-26T03:27:54;6.40;99.90
35920;DHT22;36160;53.370;-6.196;2023-02-26T03:30:27;6.40;99.90
35920;DHT22;36160;53.370;-6.196;2023-02-26T03:33:12;6.40;99.90
35920;DHT22;36160;53.370;-6.196;2023-02-26T03:36:02;6.40;1.00
35920;DHT22;36160;53.370;-6.196;2023-02-26T03:38:42;6.40;99.90
35920;DHT22;36160;53.370;-6.196;2023-02-26T03:41:22;6.40;99.90
35920;DHT22;36160;53.370;-6.196;2023-02-26T03:43:59;6.40;12.90
35920;DHT22;36160;53.370;-6.196;2023-02-26T03:46:29;6.40;1.00
35920;DHT22;36160;53.370;-6.196;2023-02-26T03:48:58;6.40;99.90
35920;DHT22;36160;53.370;-6.196;2023-02-26T03:51:27;6.50;6.10
35920;DHT22;36160;53.370;-6.196;2023-02-26T03:54:13;6.40;33.40
35920;DHT22;36160;53.370;-6.196;2023-02-26T03:56:45;6.40;99.90
35920;DHT22;36160;53.370;-6.196;2023-02-26T03:59:12;6.50;57.80
35920;DHT22;36160;53.370;-6.196;2023-02-26T04:04:39;6.60;99.90
35920;DHT22;36160;53.370;-6.196;2023-02-26T04:07:10;6.60;1.00
35920;DHT22;36160;53.370;-6.196;2023-02-26T04:09:43;6.60;99.90
35920;DHT22;36160;53.370;-6.196;2023-02-26T04:12:09;6.60;99.90
35920;DHT22;36160;53.370;-6.196;2023-02-26T04:14:35;6.60;99.90
35920;DHT22;36160;53.370;-6.196;2023-02-26T04:17:00;6.60;99.90
35920;DHT22;36160;53.370;-6.196;2023-02-26T04:19:26;6.60;99.90
35920;DHT22;36160;53.370;-6.196;2023-02-26T04:21:52;6.60;99.90
35920;DHT22;36160;53.370;-6.196;2023-02-26T04:24:17;6.70;99.90
35920;DHT22;36160;53.370;-6.196;2023-02-26T04:26:43;6.60;99.90
35920;DHT22;36160;53.370;-6.196;2023-02-26T04:29:09;6.60;99.90
35920;DHT22;36160;53.370;-6.196;2023-02-26T04:31:35;6.60;99.90
35920;DHT22;36160;53.370;-6.196;2023-02-26T04:34:01;6.60;99.90
35920;DHT22;36160;53.370;-6.196;2023-02-26T04:36:27;6.50;99.90
35920;DHT22;36160;53.370;-6.196;2023-02-26T04:38:52;6.50;99.90
35920;DHT22;36160;53.370;-6.196;2023-02-26T04:41:18;6.50;99.90
35920;DHT22;36160;53.370;-6.196;2023-02-26T04:43:44;6.50;99.90
35920;DHT22;36160;53.370;-6.196;2023-02-26T04:46:10;6.50;99.90
35920;DHT22;36160;53.370;-6.196;2023-02-26T04:48:35;6.60;99.90
35920;DHT22;36160;53.370;-6.196;2023-02-26T04:51:01;6.60;99.90
35920;DHT22;36160;53.370;-6.196;2023-02-26T04:53:27;6.60;1.00
35920;DHT22;36160;53.370;-6.196;2023-02-26T04:55:53;6.60;36.80
35920;DHT22;36160;53.370;-6.196;2023-02-26T04:58:19;6.60;93.30
35920;DHT22;36160;53.370;-6.196;2023-02-26T05:00:50;6.60;90.30
35920;DHT22;36160;53.370;-6.196;2023-02-26T05:03:17;6.70;99.90
35920;DHT22;36160;53.370;-6.196;2023-02-26T05:05:43;6.70;1.00
35920;DHT22;36160;53.370;-6.196;2023-02-26T05:08:09;6.70;99.90
35920;DHT22;36160;53.370;-6.196;2023-02-26T05:10:35;6.70;1.00
35920;DHT22;36160;53.370;-6.196;2023-02-26T05:13:00;6.70;30.40
35920;DHT22;36160;53.370;-6.196;2023-02-26T05:15:26;6.70;1.00
35920;DHT22;36160;53.370;-6.196;2023-02-26T05:17:52;6.70;99.90
35920;DHT22;36160;53.370;-6.196;2023-02-26T05:20:17;6.70;99.90
35920;DHT22;36160;53.370;-6.196;2023-02-26T05:22:43;6.70;99.90
35920;DHT22;36160;53.370;-6.196;2023-02-26T05:25:10;6.70;99.90
35920;DHT22;36160;53.370;-6.196;2023-02-26T05:27:40;6.70;99.90
35920;DHT22;36160;53.370;-6.196;2023-02-26T05:30:07;6.70;99.90
35920;DHT22;36160;53.370;-6.196;2023-02-26T05:32:34;6.70;98.30
35920;DHT22;36160;53.370;-6.196;2023-02-26T05:34:59;6.70;99.90
35920;DHT22;36160;53.370;-6.196;2023-02-26T05:37:25;6.70;95.70
35920;DHT22;36160;53.370;-6.196;2023-02-26T05:39:51;6.70;76.80
35920;DHT22;36160;53.370;-6.196;2023-02-26T05:42:16;6.70;99.90
35920;DHT22;36160;53.370;-6.196;2023-02-26T05:44:42;6.70;99.90
35920;DHT22;36160;53.370;-6.196;2023-02-26T05:47:08;6.70;99.90
35920;DHT22;36160;53.370;-6.196;2023-02-26T05:49:33;6.70;99.90
35920;DHT22;36160;53.370;-6.196;2023-02-26T05:51:59;6.70;99.90
35920;DHT22;36160;53.370;-6.196;2023-02-26T05:54:25;6.70;99.90
35920;DHT22;36160;53.370;-6.196;2023-02-26T05:56:50;6.60;99.90
35920;DHT22;36160;53.370;-6.196;2023-02-26T05:59:16;6.70;99.90
35920;DHT22;36160;53.370;-6.196;2023-02-26T06:01:42;6.70;99.90
35920;DHT22;36160;53.370;-6.196;2023-02-26T06:04:08;6.70;99.90
35920;DHT22;36160;53.370;-6.196;2023-02-26T06:06:34;6.70;99.90
35920;DHT22;36160;53.370;-6.196;2023-02-26T06:09:00;6.70;99.90
35920;DHT22;36160;53.370;-6.196;2023-02-26T06:11:27;6.70;1.00
35920;DHT22;36160;53.370;-6.196;2023-02-26T06:13:53;6.70;1.00
35920;DHT22;36160;53.370;-6.196;2023-02-26T06:16:19;6.70;24.20
35920;DHT22;36160;53.370;-6.196;2023-02-26T06:18:46;6.70;1.00
35920;DHT22;36160;53.370;-6.196;2023-02-26T06:21:11;6.70;1.00
35920;DHT22;36160;53.370;-6.196;2023-02-26T06:23:37;6.70;1.00
35920;DHT22;36160;53.370;-6.196;2023-02-26T06:26:03;6.70;99.90
35920;DHT22;36160;53.370;-6.196;2023-02-26T06:28:29;6.70;99.90
35920;DHT22;36160;53.370;-6.196;2023-02-26T06:30:55;6.70;99.90
35920;DHT22;36160;53.370;-6.196;2023-02-26T06:33:20;6.70;1.00
35920;DHT22;36160;53.370;-6.196;2023-02-26T06:35:46;6.70;99.90
35920;DHT22;36160;53.370;-6.196;2023-02-26T06:38:12;6.70;99.90
35920;DHT22;36160;53.370;-6.196;2023-02-26T06:40:38;6.70;1.00
35920;DHT22;36160;53.370;-6.196;2023-02-26T06:43:04;6.70;99.90
35920;DHT22;36160;53.370;-6.196;2023-02-26T06:45:29;6.70;99.90
35920;DHT22;36160;53.370;-6.196;2023-02-26T06:47:55;6.70;99.90
35920;DHT22;36160;53.370;-6.196;2023-02-26T06:50:21;6.70;1.00
35920;DHT22;36160;53.370;-6.196;2023-02-26T06:52:47;6.70;1.00
35920;DHT22;36160;53.370;-6.196;2023-02-26T06:55:12;6.80;77.60
35920;DHT22;36160;53.370;-6.196;2023-02-26T06:57:38;6.80;99.90
35920;DHT22;36160;53.370;-6.196;2023-02-26T07:00:05;6.80;1.00
35920;DHT22;36160;53.370;-6.196;2023-02-26T07:02:31;6.80;95.90
35920;DHT22;36160;53.370;-6.196;2023-02-26T07:04:57;6.80;26.30
35920;DHT22;36160;53.370;-6.196;2023-02-26T07:07:22;6.80;1.00
35920;DHT22;36160;53.370;-6.196;2023-02-26T07:09:48;6.80;99.90
35920;DHT22;36160;53.370;-6.196;2023-02-26T07:12:14;6.70;99.90
35920;DHT22;36160;53.370;-6.196;2023-02-26T07:14:40;6.80;1.00
35920;DHT22;36160;53.370;-6.196;2023-02-26T07:17:07;6.80;1.00
35920;DHT22;36160;53.370;-6.196;2023-02-26T07:19:33;6.80;42.70
35920;DHT22;36160;53.370;-6.196;2023-02-26T07:21:59;6.80;99.90
35920;DHT22;36160;53.370;-6.196;2023-02-26T07:24:24;6.80;51.30
35920;DHT22;36160;53.370;-6.196;2023-02-26T07:26:50;6.80;65.10
35920;DHT22;36160;53.370;-6.196;2023-02-26T07:29:16;6.80;99.90
35920;DHT22;36160;53.370;-6.196;2023-02-26T07:31:41;6.80;1.00
35920;DHT22;36160;53.370;-6.196;2023-02-26T07:34:07;6.80;1.00
35920;DHT22;36160;53.370;-6.196;2023-02-26T07:36:33;6.80;22.00
35920;DHT22;36160;53.370;-6.196;2023-02-26T07:38:59;6.80;1.00
35920;DHT22;36160;53.370;-6.196;2023-02-26T07:41:24;6.80;99.90
35920;DHT22;36160;53.370;-6.196;2023-02-26T07:43:50;6.90;99.90
35920;DHT22;36160;53.370;-6.196;2023-02-26T07:46:16;6.80;1.00
35920;DHT22;36160;53.370;-6.196;2023-02-26T07:48:41;6.80;93.50
35920;DHT22;36160;53.370;-6.196;2023-02-26T07:51:07;6.80;35.90
35920;DHT22;36160;53.370;-6.196;2023-02-26T07:53:35;6.80;99.90
35920;DHT22;36160;53.370;-6.196;2023-02-26T07:56:01;6.80;84.30
35920;DHT22;36160;53.370;-6.196;2023-02-26T07:58:26;6.80;99.90
35920;DHT22;36160;53.370;-6.196;2023-02-26T08:00:52;6.80;99.90
35920;DHT22;36160;53.370;-6.196;2023-02-26T08:03:19;6.90;99.90
35920;DHT22;36160;53.370;-6.196;2023-02-26T08:05:45;6.90;99.90
35920;DHT22;36160;53.370;-6.196;2023-02-26T08:08:10;6.90;99.90
35920;DHT22;36160;53.370;-6.196;2023-02-26T08:10:36;6.90;99.90
35920;DHT22;36160;53.370;-6.196;2023-02-26T08:13:03;6.90;99.90
35920;DHT22;36160;53.370;-6.196;2023-02-26T08:15:29;6.90;99.90
35920;DHT22;36160;53.370;-6.196;2023-02-26T08:17:55;6.90;99.90
35920;DHT22;36160;53.370;-6.196;2023-02-26T08:20:21;7.00;99.90
35920;DHT22;36160;53.370;-6.196;2023-02-26T08:22:49;7.00;1.00
35920;DHT22;36160;53.370;-6.196;2023-02-26T08:25:14;7.10;99.90
35920;DHT22;36160;53.370;-6.196;2023-02-26T08:27:40;7.00;99.90
35920;DHT22;36160;53.370;-6.196;2023-02-26T08:30:07;7.10;24.50
35920;DHT22;36160;53.370;-6.196;2023-02-26T08:32:33;7.10;99.90
35920;DHT22;36160;53.370;-6.196;2023-02-26T08:34:59;7.10;99.90
35920;DHT22;36160;53.370;-6.196;2023-02-26T08:37:25;7.10;99.90
35920;DHT22;36160;53.370;-6.196;2023-02-26T08:39:51;7.10;99.90
35920;DHT22;36160;53.370;-6.196;2023-02-26T08:42:17;7.10;40.10
35920;DHT22;36160;53.370;-6.196;2023-02-26T08:44:45;7.10;15.10
35920;DHT22;36160;53.370;-6.196;2023-02-26T08:47:11;7.10;1.00
35920;DHT22;36160;53.370;-6.196;2023-02-26T08:49:37;7.20;99.90
35920;DHT22;36160;53.370;-6.196;2023-02-26T08:52:03;7.10;1.00
35920;DHT22;36160;53.370;-6.196;2023-02-26T08:54:29;7.20;99.90
35920;DHT22;36160;53.370;-6.196;2023-02-26T08:56:55;7.20;1.00
35920;DHT22;36160;53.370;-6.196;2023-02-26T08:59:23;7.20;99.90
35920;DHT22;36160;53.370;-6.196;2023-02-26T09:01:49;7.20;76.40
35920;DHT22;36160;53.370;-6.196;2023-02-26T09:04:15;7.20;66.60
35920;DHT22;36160;53.370;-6.196;2023-02-26T09:06:41;7.20;99.90
35920;DHT22;36160;53.370;-6.196;2023-02-26T09:09:07;7.20;99.90
35920;DHT22;36160;53.370;-6.196;2023-02-26T09:11:34;7.20;99.90
35920;DHT22;36160;53.370;-6.196;2023-02-26T09:14:02;7.20;99.90
35920;DHT22;36160;53.370;-6.196;2023-02-26T09:16:29;7.30;60.60
35920;DHT22;36160;53.370;-6.196;2023-02-26T09:18:55;7.30;95.30
35920;DHT22;36160;53.370;-6.196;2023-02-26T09:21:21;7.40;99.90
35920;DHT22;36160;53.370;-6.196;2023-02-26T09:23:47;7.40;99.90
35920;DHT22;36160;53.370;-6.196;2023-02-26T09:26:13;7.50;99.90
35920;DHT22;36160;53.370;-6.196;2023-02-26T09:28:39;7.60;99.90
35920;DHT22;36160;53.370;-6.196;2023-02-26T09:31:05;7.60;99.90
35920;DHT22;36160;53.370;-6.196;2023-02-26T09:33:34;7.70;99.90
35920;DHT22;36160;53.370;-6.196;2023-02-26T09:36:00;7.70;1.00
35920;DHT22;36160;53.370;-6.196;2023-02-26T09:38:26;7.70;99.90
35920;DHT22;36160;53.370;-6.196;2023-02-26T09:46:05;7.60;1.00
35920;DHT22;36160;53.370;-6.196;2023-02-26T09:48:36;7.70;99.90
35920;DHT22;36160;53.370;-6.196;2023-02-26T09:51:03;7.70;99.90
35920;DHT22;36160;53.370;-6.196;2023-02-26T09:53:34;7.80;99.90
35920;DHT22;36160;53.370;-6.196;2023-02-26T09:56:22;7.80;99.90
35920;DHT22;36160;53.370;-6.196;2023-02-26T09:58:49;7.90;99.90
35920;DHT22;36160;53.370;-6.196;2023-02-26T10:12:06;8.20;99.90
35920;DHT22;36160;53.370;-6.196;2023-02-26T10:14:59;8.20;1.00
35920;DHT22;36160;53.370;-6.196;2023-02-26T10:25:16;8.40;99.90
35920;DHT22;36160;53.370;-6.196;2023-02-26T10:30:48;8.50;99.90
35920;DHT22;36160;53.370;-6.196;2023-02-26T10:33:38;8.50;99.90
35920;DHT22;36160;53.370;-6.196;2023-02-26T10:36:23;8.60;99.90
35920;DHT22;36160;53.370;-6.196;2023-02-26T10:38:55;8.70;99.90
35920;DHT22;36160;53.370;-6.196;2023-02-26T10:41:26;8.70;99.90
35920;DHT22;36160;53.370;-6.196;2023-02-26T10:49:29;8.70;46.60
35920;DHT22;36160;53.370;-6.196;2023-02-26T10:52:35;8.80;99.90
35920;DHT22;36160;53.370;-6.196;2023-02-26T10:57:34;9.00;1.00
35920;DHT22;36160;53.370;-6.196;2023-02-26T11:00:04;9.00;99.90
35920;DHT22;36160;53.370;-6.196;2023-02-26T11:05:00;9.30;99.90
35920;DHT22;36160;53.370;-6.196;2023-02-26T11:07:28;9.30;99.90
35920;DHT22;36160;53.370;-6.196;2023-02-26T11:09:55;9.20;99.10
35920;DHT22;36160;53.370;-6.196;2023-02-26T11:12:21;9.20;99.90
35920;DHT22;36160;53.370;-6.196;2023-02-26T11:14:49;9.20;99.90
35920;DHT22;36160;53.370;-6.196;2023-02-26T11:17:23;9.20;99.90
35920;DHT22;36160;53.370;-6.196;2023-02-26T11:22:24;9.30;99.90
35920;DHT22;36160;53.370;-6.196;2023-02-26T11:24:52;9.20;99.90
35920;DHT22;36160;53.370;-6.196;2023-02-26T11:27:21;9.20;99.90
35920;DHT22;36160;53.370;-6.196;2023-02-26T11:29:55;9.20;99.90
35920;DHT22;36160;53.370;-6.196;2023-02-26T11:32:33;9.10;1.00
35920;DHT22;36160;53.370;-6.196;2023-02-26T11:34:59;9.00;1.00
35920;DHT22;36160;53.370;-6.196;2023-02-26T11:37:33;9.00;1.00
35920;DHT22;36160;53.370;-6.196;2023-02-26T11:40:23;8.80;97.10
35920;DHT22;36160;53.370;-6.196;2023-02-26T11:42:55;8.80;5.70
35920;DHT22;36160;53.370;-6.196;2023-02-26T11:45:23;8.90;99.90
35920;DHT22;36160;53.370;-6.196;2023-02-26T11:47:57;8.90;99.90
35920;DHT22;36160;53.370;-6.196;2023-02-26T11:50:24;9.00;99.90
35920;DHT22;36160;53.370;-6.196;2023-02-26T11:53:04;9.20;1.00
35920;DHT22;36160;53.370;-6.196;2023-02-26T11:55:35;9.20;1.00
35920;DHT22;36160;53.370;-6.196;2023-02-26T11:58:01;9.20;23.90
35920;DHT22;36160;53.370;-6.196;2023-02-26T12:00:35;9.30;99.90
35920;DHT22;36160;53.370;-6.196;2023-02-26T12:03:09;9.30;98.50
35920;DHT22;36160;53.370;-6.196;2023-02-26T12:05:40;9.30;18.90
35920;DHT22;36160;53.370;-6.196;2023-02-26T12:08:33;9.30;81.60
35920;DHT22;36160;53.370;-6.196;2023-02-26T12:17:15;9.30;63.10
35920;DHT22;36160;53.370;-6.196;2023-02-26T12:19:48;9.30;93.30
35920;DHT22;36160;53.370;-6.196;2023-02-26T12:34:23;9.30;27.10
35920;DHT22;36160;53.370;-6.196;2023-02-26T12:42:46;9.30;99.90
35920;DHT22;36160;53.370;-6.196;2023-02-26T12:56:40;9.60;99.90
35920;DHT22;36160;53.370;-6.196;2023-02-26T13:07:35;10.40;99.90
35920;DHT22;36160;53.370;-6.196;2023-02-26T13:10:05;10.60;34.10
35920;DHT22;36160;53.370;-6.196;2023-02-26T13:12:45;10.50;1.00
35920;DHT22;36160;53.370;-6.196;2023-02-26T13:18:12;10.40;1.00
35920;DHT22;36160;53.370;-6.196;2023-02-26T13:20:52;10.50;2.30
35920;DHT22;36160;53.370;-6.196;2023-02-26T13:23:22;10.40;1.00
35920;DHT22;36160;53.370;-6.196;2023-02-26T13:25:59;10.50;56.20
35920;DHT22;36160;53.370;-6.196;2023-02-26T13:28:37;10.30;1.00
35920;DHT22;36160;53.370;-6.196;2023-02-26T13:31:17;10.30;99.90
35920;DHT22;36160;53.370;-6.196;2023-02-26T13:33:45;10.30;99.90
35920;DHT22;36160;53.370;-6.196;2023-02-26T13:36:14;10.30;99.90
35920;DHT22;36160;53.370;-6.196;2023-02-26T13:38:47;10.20;2.00
35920;DHT22;36160;53.370;-6.196;2023-02-26T13:41:49;10.20;8.10
35920;DHT22;36160;53.370;-6.196;2023-02-26T13:52:31;10.10;74.20
35920;DHT22;36160;53.370;-6.196;2023-02-26T13:54:57;10.00;1.00
35920;DHT22;36160;53.370;-6.196;2023-02-26T13:57:46;9.90;58.70
35920;DHT22;36160;53.370;-6.196;2023-02-26T14:00:32;9.90;99.90
35920;DHT22;36160;53.370;-6.196;2023-02-26T14:03:12;9.80;99.90
35920;DHT22;36160;53.370;-6.196;2023-02-26T14:06:05;9.80;1.00
35920;DHT22;36160;53.370;-6.196;2023-02-26T14:08:43;9.80;99.90
35920;DHT22;36160;53.370;-6.196;2023-02-26T14:16:44;9.70;99.90
35920;DHT22;36160;53.370;-6.196;2023-02-26T14:19:25;9.60;99.90
35920;DHT22;36160;53.370;-6.196;2023-02-26T14:35:12;10.10;1.00
35920;DHT22;36160;53.370;-6.196;2023-02-26T14:37:40;10.00;61.80
35920;DHT22;36160;53.370;-6.196;2023-02-26T14:40:17;9.80;1.00
35920;DHT22;36160;53.370;-6.196;2023-02-26T14:42:53;9.90;99.90
35920;DHT22;36160;53.370;-6.196;2023-02-26T14:45:31;9.90;99.90
35920;DHT22;36160;53.370;-6.196;2023-02-26T14:48:02;9.50;9.00
35920;DHT22;36160;53.370;-6.196;2023-02-26T14:59:05;9.30;52.50
35920;DHT22;36160;53.370;-6.196;2023-02-26T15:10:21;9.30;99.90
35920;DHT22;36160;53.370;-6.196;2023-02-26T15:18:18;9.50;99.90
35920;DHT22;36160;53.370;-6.196;2023-02-26T15:23:50;9.70;99.90
35920;DHT22;36160;53.370;-6.196;2023-02-26T15:26:26;9.80;1.00
35920;DHT22;36160;53.370;-6.196;2023-02-26T15:28:53;9.90;32.80
35920;DHT22;36160;53.370;-6.196;2023-02-26T15:31:28;9.80;99.90
35920;DHT22;36160;53.370;-6.196;2023-02-26T15:33:56;9.70;99.90
35920;DHT22;36160;53.370;-6.196;2023-02-26T15:36:22;9.50;99.90
35920;DHT22;36160;53.370;-6.196;2023-02-26T15:38:57;9.60;99.90
35920;DHT22;36160;53.370;-6.196;2023-02-26T15:41:26;9.60;99.90
35920;DHT22;36160;53.370;-6.196;2023-02-26T15:44:02;9.40;99.90
35920;DHT22;36160;53.370;-6.196;2023-02-26T15:46:33;9.40;99.90
35920;DHT22;36160;53.370;-6.196;2023-02-26T15:49:06;9.50;99.90
35920;DHT22;36160;53.370;-6.196;2023-02-26T15:51:32;9.70;99.90
35920;DHT22;36160;53.370;-6.196;2023-02-26T15:53:58;9.70;99.90
35920;DHT22;36160;53.370;-6.196;2023-02-26T15:56:30;9.60;1.00
35920;DHT22;36160;53.370;-6.196;2023-02-26T15:59:00;9.60;1.00
35920;DHT22;36160;53.370;-6.196;2023-02-26T16:01:29;9.50;99.90
35920;DHT22;36160;53.370;-6.196;2023-02-26T16:03:59;9.50;99.90
35920;DHT22;36160;53.370;-6.196;2023-02-26T16:06:35;9.40;99.90
35920;DHT22;36160;53.370;-6.196;2023-02-26T16:09:04;9.20;99.90
35920;DHT22;36160;53.370;-6.196;2023-02-26T16:11:35;9.10;99.90
35920;DHT22;36160;53.370;-6.196;2023-02-26T16:14:03;9.10;1.00
35920;DHT22;36160;53.370;-6.196;2023-02-26T16:16:45;9.20;99.90
35920;DHT22;36160;53.370;-6.196;2023-02-26T16:19:16;9.20;1.00
35920;DHT22;36160;53.370;-6.196;2023-02-26T16:21:46;9.30;1.00
35920;DHT22;36160;53.370;-6.196;2023-02-26T16:24:17;9.30;1.00
35920;DHT22;36160;53.370;-6.196;2023-02-26T16:26:51;9.20;23.50
35920;DHT22;36160;53.370;-6.196;2023-02-26T16:29:26;9.30;69.60
35920;DHT22;36160;53.370;-6.196;2023-02-26T16:31:57;9.30;42.90
35920;DHT22;36160;53.370;-6.196;2023-02-26T16:34:39;9.30;33.70
35920;DHT22;36160;53.370;-6.196;2023-02-26T16:39:43;9.00;99.90
35920;DHT22;36160;53.370;-6.196;2023-02-26T16:42:21;8.90;99.90
35920;DHT22;36160;53.370;-6.196;2023-02-26T16:44:50;8.80;99.90
35920;DHT22;36160;53.370;-6.196;2023-02-26T16:47:22;8.90;99.90
35920;DHT22;36160;53.370;-6.196;2023-02-26T16:49:48;8.80;99.90
35920;DHT22;36160;53.370;-6.196;2023-02-26T16:52:18;8.70;1.00
35920;DHT22;36160;53.370;-6.196;2023-02-26T16:54:53;8.70;99.90
35920;DHT22;36160;53.370;-6.196;2023-02-26T16:57:30;8.80;99.90
35920;DHT22;36160;53.370;-6.196;2023-02-26T16:59:58;8.70;1.00
35920;DHT22;36160;53.370;-6.196;2023-02-26T17:02:28;8.70;1.00
35920;DHT22;36160;53.370;-6.196;2023-02-26T17:05:02;8.60;99.90
35920;DHT22;36160;53.370;-6.196;2023-02-26T17:07:32;8.70;99.90
35920;DHT22;36160;53.370;-6.196;2023-02-26T17:10:16;8.70;5.70
35920;DHT22;36160;53.370;-6.196;2023-02-26T17:12:45;8.60;99.90
35920;DHT22;36160;53.370;-6.196;2023-02-26T17:15:19;8.60;1.00
35920;DHT22;36160;53.370;-6.196;2023-02-26T17:17:46;8.70;1.00
35920;DHT22;36160;53.370;-6.196;2023-02-26T17:20:13;8.60;1.00
35920;DHT22;36160;53.370;-6.196;2023-02-26T17:22:41;8.60;1.00
35920;DHT22;36160;53.370;-6.196;2023-02-26T17:25:13;8.50;99.90
35920;DHT22;36160;53.370;-6.196;2023-02-26T17:27:39;8.60;99.90
35920;DHT22;36160;53.370;-6.196;2023-02-26T17:30:06;8.50;99.90
35920;DHT22;36160;53.370;-6.196;2023-02-26T17:32:33;8.40;99.90
35920;DHT22;36160;53.370;-6.196;2023-02-26T17:35:01;8.40;1.00
35920;DHT22;36160;53.370;-6.196;2023-02-26T17:37:32;8.40;99.90
35920;DHT22;36160;53.370;-6.196;2023-02-26T17:40:00;8.40;99.90
35920;DHT22;36160;53.370;-6.196;2023-02-26T17:42:25;8.30;99.90
35920;DHT22;36160;53.370;-6.196;2023-02-26T17:44:51;8.20;99.90
35920;DHT22;36160;53.370;-6.196;2023-02-26T17:47:25;8.10;58.40
35920;DHT22;36160;53.370;-6.196;2023-02-26T17:49:51;8.10;99.90
35920;DHT22;36160;53.370;-6.196;2023-02-26T17:52:18;8.00;99.90
35920;DHT22;36160;53.370;-6.196;2023-02-26T17:54:43;7.90;99.90
35920;DHT22;36160;53.370;-6.196;2023-02-26T17:57:19;7.80;99.90
35920;DHT22;36160;53.370;-6.196;2023-02-26T17:59:46;7.80;99.90
35920;DHT22;36160;53.370;-6.196;2023-02-26T18:02:21;7.70;99.90
35920;DHT22;36160;53.370;-6.196;2023-02-26T18:04:48;7.70;99.90
35920;DHT22;36160;53.370;-6.196;2023-02-26T18:07:17;7.60;99.90
35920;DHT22;36160;53.370;-6.196;2023-02-26T18:09:44;7.60;99.90
35920;DHT22;36160;53.370;-6.196;2023-02-26T18:12:19;7.50;99.90
35920;DHT22;36160;53.370;-6.196;2023-02-26T18:14:45;7.50;99.90
35920;DHT22;36160;53.370;-6.196;2023-02-26T18:17:23;7.40;99.90
35920;DHT22;36160;53.370;-6.196;2023-02-26T18:19:50;7.30;99.90
35920;DHT22;36160;53.370;-6.196;2023-02-26T18:22:17;7.30;99.90
35920;DHT22;36160;53.370;-6.196;2023-02-26T18:24:44;7.20;1.00
35920;DHT22;36160;53.370;-6.196;2023-02-26T18:27:14;7.20;1.00
35920;DHT22;36160;53.370;-6.196;2023-02-26T18:29:40;7.20;1.00
35920;DHT22;36160;53.370;-6.196;2023-02-26T18:32:07;7.10;1.00
35920;DHT22;36160;53.370;-6.196;2023-02-26T18:34:33;7.10;1.00
35920;DHT22;36160;53.370;-6.196;2023-02-26T18:36:59;7.10;1.00
35920;DHT22;36160;53.370;-6.196;2023-02-26T18:39:28;7.10;1.00
35920;DHT22;36160;53.370;-6.196;2023-02-26T18:41:57;7.00;1.00
35920;DHT22;36160;53.370;-6.196;2023-02-26T18:44:22;7.00;1.00
35920;DHT22;36160;53.370;-6.196;2023-02-26T18:46:48;6.90;1.00
35920;DHT22;36160;53.370;-6.196;2023-02-26T18:49:17;6.90;1.00